createdAt,value
2019-06-01T00:00:11.391Z,20.94
2019-06-01T00:02:26.594Z,20.48
2019-06-01T00:04:45.109Z,20.28
2019-06-01T00:07:02.245Z,20.28
2019-06-01T00:09:20.425Z,20.20
2019-06-01T00:11:37.476Z,20.19
2019-06-01T00:13:55.949Z,20.19
2019-06-01T00:16:13.301Z,20.21
2019-06-01T00:18:30.582Z,20.11
2019-06-01T00:20:48.628Z,20.06
2019-06-01T00:23:05.481Z,19.96
2019-06-01T00:25:22.273Z,19.96
2019-06-01T00:27:40.364Z,19.97
2019-06-01T00:29:57.494Z,19.89
2019-06-01T00:32:14.444Z,19.84
2019-06-01T00:34:31.308Z,19.70
2019-06-01T00:36:48.301Z,19.74
2019-06-01T00:39:06.328Z,19.76
2019-06-01T00:41:23.271Z,19.76
2019-06-01T00:43:40.058Z,19.76
2019-06-01T00:45:56.927Z,19.65
2019-06-01T00:48:14.012Z,19.72
2019-06-01T00:50:32.288Z,19.61
2019-06-01T00:52:49.337Z,19.54
2019-06-01T00:55:06.414Z,19.44
2019-06-01T00:57:26.546Z,19.38
2019-06-01T00:59:43.665Z,19.39
2019-06-01T01:02:01.119Z,19.46
2019-06-01T01:04:18.398Z,19.42
2019-06-01T01:06:35.430Z,19.39
2019-06-01T01:08:52.985Z,19.19
2019-06-01T01:11:10.273Z,19.27
2019-06-01T01:13:27.652Z,19.16
2019-06-01T01:15:45.208Z,19.27
2019-06-01T01:18:02.549Z,19.28
2019-06-01T01:20:19.677Z,19.33
2019-06-01T01:22:36.293Z,18.97
2019-06-01T01:24:54.468Z,19.01
2019-06-01T01:27:11.562Z,19.23
2019-06-01T01:29:28.527Z,19.10
2019-06-01T01:31:45.285Z,19.10
2019-06-01T01:34:02.300Z,19.09
2019-06-01T01:36:19.314Z,19.06
2019-06-01T01:38:36.257Z,19.02
2019-06-01T01:40:54.168Z,19.03
2019-06-01T01:43:10.924Z,19.02
2019-06-01T01:45:27.487Z,19.04
2019-06-01T01:47:46.145Z,18.87
2019-06-01T01:50:03.141Z,18.87
2019-06-01T01:52:20.255Z,18.90
2019-06-01T01:54:37.346Z,18.97
2019-06-01T01:56:54.253Z,18.86
2019-06-01T01:59:11.223Z,18.56
2019-06-01T02:01:28.241Z,18.58
2019-06-01T02:03:45.296Z,18.65
2019-06-01T02:06:03.333Z,18.83
2019-06-01T02:08:20.295Z,18.88
2019-06-01T02:10:37.328Z,18.83
2019-06-01T02:12:55.386Z,18.82
2019-06-01T02:15:12.469Z,18.74
2019-06-01T02:17:29.235Z,18.74
2019-06-01T02:19:46.224Z,18.86
2019-06-01T02:22:03.710Z,18.76
2019-06-01T02:24:21.990Z,18.71
2019-06-01T02:26:38.959Z,18.75
2019-06-01T02:28:55.599Z,18.34
2019-06-01T02:31:12.508Z,17.97
2019-06-01T02:33:29.638Z,18.13
2019-06-01T02:35:46.374Z,18.49
2019-06-01T02:38:05.474Z,18.56
2019-06-01T02:40:21.634Z,18.40
2019-06-01T02:42:38.369Z,18.26
2019-06-01T02:44:57.278Z,18.38
2019-06-01T02:47:14.257Z,18.27
2019-06-01T02:49:31.115Z,18.34
2019-06-01T02:51:47.668Z,18.22
2019-06-01T02:54:04.299Z,18.37
2019-06-01T02:56:21.356Z,18.44
2019-06-01T02:58:39.295Z,18.50
2019-06-01T03:01:55.932Z,18.49
2019-06-01T03:04:03.386Z,18.37
2019-06-01T03:06:20.466Z,17.70
2019-06-01T03:08:37.290Z,17.70
2019-06-01T03:10:54.245Z,18.19
2019-06-01T03:13:11.254Z,18.27
2019-06-01T03:15:28.345Z,18.28
2019-06-01T03:17:47.928Z,18.21
2019-06-01T03:20:06.253Z,18.23
2019-06-01T03:22:23.379Z,18.27
2019-06-01T03:24:40.245Z,18.14
2019-06-01T03:26:57.237Z,18.19
2019-06-01T03:29:15.377Z,18.27
2019-06-01T03:31:33.675Z,18.17
2019-06-01T03:33:50.329Z,17.85
2019-06-01T03:36:07.393Z,17.85
2019-06-01T03:38:24.263Z,18.14
2019-06-01T03:40:41.461Z,18.17
2019-06-01T03:42:58.383Z,18.20
2019-06-01T03:45:15.246Z,18.27
2019-06-01T03:47:32.483Z,18.14
2019-06-01T03:49:49.326Z,18.27
2019-06-01T03:52:06.935Z,18.32
2019-06-01T03:54:24.295Z,18.38
2019-06-01T03:56:41.337Z,18.33
2019-06-01T03:58:58.491Z,18.35
2019-06-01T04:01:15.368Z,18.02
2019-06-01T04:03:32.239Z,17.93
2019-06-01T04:05:49.065Z,17.70
2019-06-01T04:08:05.784Z,17.79
2019-06-01T04:10:23.479Z,18.29
2019-06-01T04:12:42.066Z,18.29
2019-06-01T04:14:59.233Z,18.30
2019-06-01T04:17:16.107Z,18.53
2019-06-01T04:19:33.319Z,18.47
2019-06-01T04:21:50.243Z,17.86
2019-06-01T04:24:08.040Z,18.07
2019-06-01T04:26:24.973Z,18.80
2019-06-01T04:28:41.589Z,19.04
2019-06-01T04:30:58.438Z,19.05
2019-06-01T04:33:15.258Z,19.27
2019-06-01T04:35:32.291Z,19.38
2019-06-01T04:37:49.245Z,19.47
2019-06-01T04:40:07.454Z,19.60
2019-06-01T04:42:26.038Z,19.59
2019-06-01T04:44:44.262Z,19.45
2019-06-01T04:47:00.965Z,19.29
2019-06-01T04:49:17.806Z,19.46
2019-06-01T04:51:36.259Z,19.17
2019-06-01T04:53:53.235Z,19.97
2019-06-01T04:56:11.266Z,20.11
2019-06-01T04:58:28.436Z,20.00
2019-06-01T05:00:45.846Z,20.32
2019-06-01T05:03:07.005Z,20.49
2019-06-01T05:05:21.443Z,20.67
2019-06-01T05:07:38.266Z,20.77
2019-06-01T05:09:54.923Z,20.95
2019-06-01T05:12:11.772Z,21.09
2019-06-01T05:14:28.950Z,21.25
2019-06-01T05:16:45.602Z,21.25
2019-06-01T05:19:02.325Z,21.22
2019-06-01T05:21:20.442Z,21.56
2019-06-01T05:23:37.603Z,21.69
2019-06-01T05:25:54.584Z,21.92
2019-06-01T05:28:11.339Z,21.83
2019-06-01T05:30:30.495Z,22.28
2019-06-01T05:32:47.375Z,22.33
2019-06-01T05:35:04.491Z,22.83
2019-06-01T05:37:21.330Z,23.16
2019-06-01T05:39:38.314Z,23.55
2019-06-01T05:41:55.539Z,23.93
2019-06-01T05:44:12.883Z,24.52
2019-06-01T05:46:30.702Z,24.78
2019-06-01T05:48:47.459Z,25.33
2019-06-01T05:51:04.419Z,25.33
2019-06-01T05:53:21.337Z,25.68
2019-06-01T05:55:38.337Z,26.29
2019-06-01T05:57:55.258Z,25.32
2019-06-01T06:00:13.552Z,26.09
2019-06-01T06:02:30.495Z,25.34
2019-06-01T06:04:47.379Z,26.55
2019-06-01T06:07:04.457Z,27.28
2019-06-01T06:09:21.350Z,26.50
2019-06-01T06:11:38.328Z,28.04
2019-06-01T06:13:55.249Z,27.26
2019-06-01T06:16:13.716Z,28.31
2019-06-01T06:18:30.623Z,28.33
2019-06-01T06:20:47.396Z,29.11
2019-06-01T06:23:04.433Z,29.13
2019-06-01T06:25:21.258Z,29.45
2019-06-01T06:27:38.319Z,29.73
2019-06-01T06:29:55.347Z,29.55
2019-06-01T06:32:12.898Z,29.38
2019-06-01T06:34:29.772Z,29.26
2019-06-01T06:36:46.840Z,29.49
2019-06-01T06:39:04.755Z,29.49
2019-06-01T06:41:22.343Z,29.14
2019-06-01T06:43:40.574Z,29.54
2019-06-01T06:45:57.249Z,30.49
2019-06-01T06:48:14.926Z,30.95
2019-06-01T06:50:35.258Z,31.54
2019-06-01T06:52:52.237Z,32.42
2019-06-01T06:55:09.395Z,33.16
2019-06-01T06:57:26.453Z,33.78
2019-06-01T06:59:43.421Z,34.57
2019-06-01T07:02:00.270Z,33.93
2019-06-01T07:04:17.248Z,34.30
2019-06-01T07:06:34.546Z,33.93
2019-06-01T07:08:51.473Z,33.36
2019-06-01T07:11:11.761Z,34.54
2019-06-01T07:13:28.098Z,35.07
2019-06-01T07:15:46.248Z,33.72
2019-06-01T07:18:03.226Z,33.96
2019-06-01T07:20:21.522Z,32.48
2019-06-01T07:22:38.339Z,32.83
2019-06-01T07:24:55.357Z,33.20
2019-06-01T07:27:12.387Z,33.01
2019-06-01T07:29:29.313Z,32.38
2019-06-01T07:31:47.308Z,32.53
2019-06-01T07:34:06.262Z,32.96
2019-06-01T07:36:24.419Z,32.71
2019-06-01T07:38:41.947Z,33.78
2019-06-01T07:40:59.247Z,34.66
2019-06-01T07:43:16.248Z,33.08
2019-06-01T07:45:35.219Z,34.78
2019-06-01T07:47:51.554Z,34.35
2019-06-01T07:50:08.448Z,33.40
2019-06-01T07:52:26.170Z,34.67
2019-06-01T07:54:43.255Z,35.59
2019-06-01T07:57:00.125Z,34.42
2019-06-01T07:59:17.071Z,35.62
2019-06-01T08:01:34.333Z,35.55
2019-06-01T08:03:52.495Z,35.65
2019-06-01T08:06:09.292Z,34.32
2019-06-01T08:08:27.305Z,33.69
2019-06-01T08:10:44.972Z,34.35
2019-06-01T08:13:01.670Z,34.31
2019-06-01T08:15:18.774Z,34.91
2019-06-01T08:17:35.476Z,33.42
2019-06-01T08:19:52.288Z,34.08
2019-06-01T08:22:09.600Z,33.93
2019-06-01T08:24:26.443Z,34.03
2019-06-01T08:26:43.411Z,35.12
2019-06-01T08:29:00.493Z,34.84
2019-06-01T08:31:17.286Z,34.86
2019-06-01T08:33:35.080Z,35.20
2019-06-01T08:35:52.241Z,32.11
2019-06-01T08:38:09.255Z,34.84
2019-06-01T08:40:27.391Z,34.32
2019-06-01T08:42:45.492Z,36.12
2019-06-01T08:45:02.380Z,36.12
2019-06-01T08:47:19.273Z,35.59
2019-06-01T08:49:37.460Z,35.34
2019-06-01T08:51:54.480Z,36.13
2019-06-01T08:54:11.415Z,35.22
2019-06-01T08:56:28.432Z,35.61
2019-06-01T08:58:45.459Z,33.97
2019-06-01T09:01:02.516Z,34.93
2019-06-01T09:03:19.335Z,33.51
2019-06-01T09:05:36.253Z,34.54
2019-06-01T09:07:53.411Z,33.94
2019-06-01T09:10:12.048Z,34.60
2019-06-01T09:12:29.276Z,35.66
2019-06-01T09:14:46.265Z,36.12
2019-06-01T09:17:03.276Z,35.96
2019-06-01T09:19:20.251Z,35.98
2019-06-01T09:21:37.333Z,36.02
2019-06-01T09:23:55.487Z,36.35
2019-06-01T09:26:12.459Z,35.39
2019-06-01T09:28:29.893Z,36.42
2019-06-01T09:30:46.783Z,36.68
2019-06-01T09:33:05.071Z,37.35
2019-06-01T09:35:22.452Z,37.35
2019-06-01T09:37:39.368Z,38.46
2019-06-01T09:39:56.669Z,37.29
2019-06-01T09:42:15.279Z,38.00
2019-06-01T09:44:33.640Z,38.33
2019-06-01T09:46:50.454Z,38.42
2019-06-01T09:49:07.781Z,37.89
2019-06-01T09:51:27.269Z,39.42
2019-06-01T09:53:44.402Z,39.89
2019-06-01T09:56:02.220Z,39.44
2019-06-01T09:58:19.452Z,39.53
2019-06-01T10:00:41.516Z,38.91
2019-06-01T10:02:57.899Z,38.03
2019-06-01T10:05:14.784Z,37.50
2019-06-01T10:07:32.720Z,38.72
2019-06-01T10:09:49.740Z,38.72
2019-06-01T10:12:06.765Z,37.83
2019-06-01T10:14:23.433Z,39.43
2019-06-01T10:16:40.293Z,39.43
2019-06-01T10:18:57.253Z,39.77
2019-06-01T10:21:15.318Z,39.98
2019-06-01T10:23:32.474Z,39.67
2019-06-01T10:25:49.626Z,40.43
2019-06-01T10:28:06.314Z,36.94
2019-06-01T10:30:24.256Z,38.19
2019-06-01T10:32:42.126Z,38.21
2019-06-01T10:34:59.467Z,37.35
2019-06-01T10:37:16.495Z,37.50
2019-06-01T10:39:35.292Z,37.47
2019-06-01T10:41:53.467Z,37.84
2019-06-01T10:44:11.014Z,39.11
2019-06-01T10:46:27.642Z,38.96
2019-06-01T10:48:44.366Z,37.71
2019-06-01T10:51:01.488Z,38.24
2019-06-01T10:53:19.080Z,39.42
2019-06-01T10:55:36.166Z,38.11
2019-06-01T10:57:53.446Z,39.80
2019-06-01T11:00:10.464Z,39.70
2019-06-01T11:02:27.574Z,37.26
2019-06-01T11:04:46.753Z,39.60
2019-06-01T11:07:05.257Z,40.22
2019-06-01T11:09:22.395Z,38.54
2019-06-01T11:11:39.534Z,40.73
2019-06-01T11:13:56.538Z,38.59
2019-06-01T11:16:13.592Z,39.45
2019-06-01T11:18:30.469Z,38.46
2019-06-01T11:20:47.647Z,39.41
2019-06-01T11:23:04.568Z,38.89
2019-06-01T11:25:21.586Z,38.89
2019-06-01T11:27:39.666Z,40.40
2019-06-01T11:29:56.428Z,40.52
2019-06-01T11:32:13.322Z,37.92
2019-06-01T11:34:33.864Z,38.93
2019-06-01T11:37:04.206Z,39.65
2019-06-01T11:39:09.644Z,39.20
2019-06-01T11:41:26.430Z,39.72
2019-06-01T11:43:43.499Z,40.63
2019-06-01T11:46:01.970Z,40.68
2019-06-01T11:48:22.135Z,40.41
2019-06-01T11:50:41.208Z,40.24
2019-06-01T11:52:58.360Z,41.40
2019-06-01T11:55:15.470Z,42.23
2019-06-01T11:57:35.265Z,40.65
2019-06-01T11:59:52.466Z,40.97
2019-06-01T12:02:09.592Z,41.27
2019-06-01T12:04:26.539Z,39.39
2019-06-01T12:06:44.148Z,39.60
2019-06-01T12:09:03.990Z,40.29
2019-06-01T12:11:21.321Z,40.29
2019-06-01T12:13:38.323Z,42.46
2019-06-01T12:15:56.598Z,41.37
2019-06-01T12:18:14.085Z,41.78
2019-06-01T12:20:31.384Z,42.72
2019-06-01T12:22:48.503Z,40.16
2019-06-01T12:25:05.541Z,40.20
2019-06-01T12:27:23.837Z,40.26
2019-06-01T12:29:41.479Z,40.26
2019-06-01T12:31:59.626Z,40.76
2019-06-01T12:34:16.438Z,40.82
2019-06-01T12:36:34.430Z,40.20
2019-06-01T12:38:52.959Z,41.53
2019-06-01T12:41:09.983Z,40.96
2019-06-01T12:43:27.089Z,38.84
2019-06-01T12:45:44.268Z,40.13
2019-06-01T12:48:01.255Z,39.22
2019-06-01T12:50:18.570Z,38.23
2019-06-01T12:52:35.442Z,39.91
2019-06-01T12:54:53.136Z,40.16
2019-06-01T12:57:10.362Z,39.40
2019-06-01T12:59:28.955Z,39.94
2019-06-01T13:01:47.406Z,39.40
2019-06-01T13:04:04.406Z,39.63
2019-06-01T13:06:21.278Z,39.51
2019-06-01T13:08:38.573Z,39.85
2019-06-01T13:10:55.463Z,39.88
2019-06-01T13:13:12.506Z,40.56
2019-06-01T13:15:30.243Z,40.82
2019-06-01T13:17:47.407Z,41.67
2019-06-01T13:20:05.014Z,40.14
2019-06-01T13:22:21.674Z,40.62
2019-06-01T13:24:38.524Z,39.50
2019-06-01T13:26:55.456Z,41.05
2019-06-01T13:29:12.466Z,39.50
2019-06-01T13:31:29.497Z,40.93
2019-06-01T13:33:46.504Z,38.85
2019-06-01T13:36:03.479Z,40.10
2019-06-01T13:38:20.348Z,41.34
2019-06-01T13:40:37.340Z,40.33
2019-06-01T13:42:54.315Z,40.34
2019-06-01T13:45:11.379Z,37.74
2019-06-01T13:47:28.295Z,38.91
2019-06-01T13:49:46.838Z,40.88
2019-06-01T13:52:04.330Z,41.48
2019-06-01T13:54:21.738Z,42.14
2019-06-01T13:56:38.617Z,39.48
2019-06-01T13:58:55.465Z,39.48
2019-06-01T14:01:12.289Z,37.90
2019-06-01T14:03:29.266Z,40.26
2019-06-01T14:05:46.803Z,40.35
2019-06-01T14:08:03.820Z,37.07
2019-06-01T14:10:20.665Z,39.54
2019-06-01T14:12:39.014Z,37.79
2019-06-01T14:14:56.011Z,37.79
2019-06-01T14:17:13.066Z,39.24
2019-06-01T14:19:31.277Z,39.86
2019-06-01T14:21:50.261Z,39.98
2019-06-01T14:24:07.259Z,40.16
2019-06-01T14:26:24.677Z,40.77
2019-06-01T14:28:41.564Z,40.16
2019-06-01T14:30:58.661Z,39.65
2019-06-01T14:33:16.852Z,40.06
2019-06-01T14:35:35.813Z,40.73
2019-06-01T14:37:53.314Z,40.22
2019-06-01T14:40:10.466Z,41.61
2019-06-01T14:42:27.475Z,40.86
2019-06-01T14:44:44.383Z,41.59
2019-06-01T14:47:05.905Z,41.23
2019-06-01T14:49:22.474Z,41.24
2019-06-01T14:51:39.395Z,41.91
2019-06-01T14:53:57.948Z,39.24
2019-06-01T14:56:16.258Z,39.06
2019-06-01T14:58:33.785Z,38.41
2019-06-01T15:00:52.682Z,40.89
2019-06-01T15:03:09.530Z,40.48
2019-06-01T15:05:26.810Z,39.76
2019-06-01T15:07:43.946Z,40.44
2019-06-01T15:10:01.440Z,41.13
2019-06-01T15:12:19.834Z,41.45
2019-06-01T15:14:36.861Z,38.02
2019-06-01T15:16:53.995Z,38.02
2019-06-01T15:19:12.022Z,38.27
2019-06-01T15:21:29.330Z,40.62
2019-06-01T15:23:46.486Z,39.38
2019-06-01T15:26:03.419Z,41.45
2019-06-01T15:28:20.358Z,39.25
2019-06-01T15:30:38.076Z,37.88
2019-06-01T15:32:56.107Z,38.88
2019-06-01T15:35:13.338Z,39.70
2019-06-01T15:37:30.694Z,40.40
2019-06-01T15:39:47.429Z,40.78
2019-06-01T15:42:04.704Z,40.78
2019-06-01T15:44:22.074Z,40.88
2019-06-01T15:46:39.396Z,40.88
2019-06-01T15:48:57.824Z,40.30
2019-06-01T15:51:14.994Z,40.30
2019-06-01T15:53:32.269Z,40.19
2019-06-01T15:55:49.475Z,40.41
2019-06-01T15:58:06.406Z,38.99
2019-06-01T16:00:24.254Z,39.62
2019-06-01T16:02:41.320Z,37.17
2019-06-01T16:04:59.274Z,38.90
2019-06-01T16:07:21.506Z,39.21
2019-06-01T16:09:43.079Z,37.95
2019-06-01T16:11:57.686Z,38.39
2019-06-01T16:14:14.499Z,38.40
2019-06-01T16:16:31.988Z,36.34
2019-06-01T16:18:48.513Z,35.22
2019-06-01T16:21:05.358Z,35.34
2019-06-01T16:23:22.380Z,35.96
2019-06-01T16:25:39.396Z,35.10
2019-06-01T16:27:56.673Z,35.45
2019-06-01T16:30:17.510Z,34.78
2019-06-01T16:32:34.495Z,34.52
2019-06-01T16:34:51.551Z,33.99
2019-06-01T16:37:08.971Z,35.80
2019-06-01T16:39:26.251Z,35.80
2019-06-01T16:41:43.354Z,34.35
2019-06-01T16:44:01.770Z,34.92
2019-06-01T16:46:19.023Z,33.93
2019-06-01T16:48:37.366Z,34.40
2019-06-01T16:50:55.524Z,35.27
2019-06-01T16:53:12.517Z,34.04
2019-06-01T16:55:31.473Z,34.04
2019-06-01T16:57:48.007Z,34.55
2019-06-01T17:00:07.049Z,36.23
2019-06-01T17:02:24.347Z,35.77
2019-06-01T17:04:41.493Z,34.85
2019-06-01T17:06:58.700Z,35.23
2019-06-01T17:09:15.996Z,32.75
2019-06-01T17:11:33.029Z,32.75
2019-06-01T17:13:51.071Z,33.73
2019-06-01T17:16:07.997Z,33.48
2019-06-01T17:18:25.024Z,32.98
2019-06-01T17:20:46.969Z,33.23
2019-06-01T17:23:20.918Z,32.36
2019-06-01T17:25:23.450Z,31.77
2019-06-01T17:27:40.494Z,32.11
2019-06-01T17:29:58.082Z,32.22
2019-06-01T17:32:23.918Z,31.44
2019-06-01T17:34:33.398Z,31.46
2019-06-01T17:36:51.839Z,31.46
2019-06-01T17:39:10.550Z,31.61
2019-06-01T17:41:27.621Z,31.43
2019-06-01T17:43:45.517Z,30.38
2019-06-01T17:46:02.807Z,31.22
2019-06-01T17:48:26.386Z,30.98
2019-06-01T17:50:38.842Z,30.45
2019-06-01T17:52:55.500Z,30.45
2019-06-01T17:55:27.404Z,30.67
2019-06-01T17:57:47.496Z,30.71
2019-06-01T18:00:05.687Z,30.20
2019-06-01T18:02:24.323Z,30.96
2019-06-01T18:04:43.272Z,30.82
2019-06-01T18:07:01.696Z,30.97
2019-06-01T18:09:20.679Z,30.59
2019-06-01T18:11:38.139Z,30.59
2019-06-01T18:13:55.097Z,31.22
2019-06-01T18:16:13.180Z,31.06
2019-06-01T18:18:31.058Z,31.54
2019-06-01T18:20:48.460Z,30.87
2019-06-01T18:23:07.489Z,29.49
2019-06-01T18:25:26.270Z,29.85
2019-06-01T18:27:43.306Z,30.82
2019-06-01T18:30:02.844Z,30.98
2019-06-01T18:32:22.280Z,30.80
2019-06-01T18:34:39.467Z,30.94
2019-06-01T18:36:57.990Z,30.89
2019-06-01T18:39:16.280Z,30.87
2019-06-01T18:41:33.251Z,30.79
2019-06-01T18:43:51.479Z,30.65
2019-06-01T18:46:08.338Z,30.60
2019-06-01T18:48:25.335Z,28.94
2019-06-01T18:50:42.649Z,27.79
2019-06-01T18:53:00.385Z,28.42
2019-06-01T18:55:17.477Z,29.05
2019-06-01T18:57:34.494Z,29.37
2019-06-01T18:59:56.847Z,29.51
2019-06-01T19:02:17.407Z,29.55
2019-06-01T19:04:37.063Z,29.30
2019-06-01T19:06:53.819Z,29.17
2019-06-01T19:09:13.627Z,29.27
2019-06-01T19:11:36.121Z,29.18
2019-06-01T19:15:53.086Z,28.82
2019-06-01T19:18:17.262Z,28.46
2019-06-01T19:20:33.071Z,28.22
2019-06-01T19:22:54.270Z,28.22
2019-06-01T19:25:13.103Z,28.26
2019-06-01T19:27:34.070Z,27.64
2019-06-01T19:29:51.561Z,27.86
2019-06-01T19:32:10.867Z,27.46
2019-06-01T19:34:28.624Z,27.42
2019-06-01T19:36:47.376Z,27.42
2019-06-01T19:39:07.269Z,27.26
2019-06-01T19:41:24.469Z,27.08
2019-06-01T19:43:42.042Z,27.13
2019-06-01T19:45:59.288Z,26.72
2019-06-01T19:48:19.382Z,26.45
2019-06-01T19:50:36.478Z,26.68
2019-06-01T19:52:55.686Z,26.76
2019-06-01T19:55:14.999Z,26.62
2019-06-01T19:57:32.851Z,26.47
2019-06-01T19:59:53.310Z,26.27
2019-06-01T20:02:27.297Z,26.36
2019-06-01T20:04:35.281Z,26.42
2019-06-01T20:06:53.328Z,26.17
2019-06-01T20:09:11.042Z,26.22
2019-06-01T20:11:30.627Z,26.04
2019-06-01T20:13:49.500Z,26.08
2019-06-01T20:16:07.735Z,26.35
2019-06-01T20:18:26.341Z,26.39
2019-06-01T20:20:46.518Z,26.38
2019-06-01T20:23:03.536Z,25.93
2019-06-01T20:25:21.548Z,25.47
2019-06-01T20:27:41.242Z,25.78
2019-06-01T20:29:57.761Z,25.69
2019-06-01T20:32:15.899Z,25.65
2019-06-01T20:34:34.849Z,25.58
2019-06-01T20:36:56.327Z,25.66
2019-06-01T20:39:14.256Z,25.51
2019-06-01T20:41:33.344Z,25.53
2019-06-01T20:43:50.460Z,25.46
2019-06-01T20:46:14.480Z,25.17
2019-06-01T20:48:31.375Z,25.04
2019-06-01T20:50:48.583Z,25.14
2019-06-01T20:53:09.252Z,24.98
2019-06-01T20:55:27.502Z,25.09
2019-06-01T20:57:44.495Z,25.04
2019-06-01T21:00:06.624Z,25.11
2019-06-01T21:02:26.433Z,24.77
2019-06-01T21:04:47.099Z,24.75
2019-06-01T21:07:05.292Z,24.79
2019-06-01T21:09:22.468Z,24.82
2019-06-01T21:11:41.516Z,24.76
2019-06-01T21:13:58.504Z,24.76
2019-06-01T21:16:18.395Z,24.58
2019-06-01T21:18:35.449Z,24.62
2019-06-01T21:20:52.513Z,23.96
2019-06-01T21:23:10.293Z,24.46
2019-06-01T21:25:29.342Z,24.43
2019-06-01T21:27:46.318Z,24.46
2019-06-01T21:30:03.836Z,24.38
2019-06-01T21:32:23.593Z,24.39
2019-06-01T21:34:43.838Z,24.01
2019-06-01T21:37:00.537Z,24.01
2019-06-01T21:39:17.584Z,24.04
2019-06-01T21:41:34.575Z,23.89
2019-06-01T21:43:51.564Z,23.89
2019-06-01T21:46:08.434Z,23.84
2019-06-01T21:48:25.910Z,23.71
2019-06-01T21:50:43.278Z,23.62
2019-06-01T21:53:01.828Z,23.60
2019-06-01T21:55:20.181Z,23.51
2019-06-01T21:57:37.283Z,23.45
2019-06-01T21:59:54.284Z,23.40
2019-06-01T22:02:12.054Z,23.40
2019-06-01T22:04:30.556Z,23.28
2019-06-01T22:06:47.468Z,23.20
2019-06-01T22:09:05.780Z,23.35
2019-06-01T22:11:23.528Z,23.32
2019-06-01T22:13:41.252Z,22.97
2019-06-01T22:15:58.252Z,22.83
2019-06-01T22:18:17.590Z,22.95
2019-06-01T22:20:34.425Z,22.88
2019-06-01T22:22:51.282Z,22.88
2019-06-01T22:25:08.324Z,23.08
2019-06-01T22:27:26.345Z,23.04
2019-06-01T22:29:43.446Z,23.05
2019-06-01T22:32:00.447Z,23.07
2019-06-01T22:34:18.510Z,22.96
2019-06-01T22:36:35.492Z,22.93
2019-06-01T22:38:52.339Z,22.87
2019-06-01T22:41:09.307Z,22.85
2019-06-01T22:43:39.169Z,22.88
2019-06-01T22:45:44.552Z,22.84
2019-06-01T22:48:01.472Z,22.85
2019-06-01T22:50:18.385Z,22.69
2019-06-01T22:52:35.283Z,22.63
2019-06-01T22:54:52.261Z,22.63
2019-06-01T22:57:09.253Z,22.68
2019-06-01T22:59:27.258Z,22.55
2019-06-01T23:01:44.267Z,22.54
2019-06-01T23:04:01.070Z,22.40
2019-06-01T23:06:19.095Z,22.43
2019-06-01T23:08:35.974Z,22.36
2019-06-01T23:10:54.436Z,22.32
2019-06-01T23:13:11.245Z,22.35
2019-06-01T23:15:28.046Z,22.16
2019-06-01T23:17:44.622Z,22.10
2019-06-01T23:20:01.297Z,22.09
2019-06-01T23:22:18.462Z,22.04
2019-06-01T23:24:35.362Z,22.00
2019-06-01T23:26:52.347Z,21.26
2019-06-01T23:29:09.377Z,21.68
2019-06-01T23:31:26.370Z,21.61
2019-06-01T23:33:43.446Z,21.70
2019-06-01T23:36:00.405Z,21.77
2019-06-01T23:38:17.314Z,21.81
2019-06-01T23:40:34.248Z,21.83
2019-06-01T23:42:50.872Z,21.61
2019-06-01T23:45:08.931Z,21.62
2019-06-01T23:47:25.866Z,21.55
2019-06-01T23:49:44.307Z,21.53
2019-06-01T23:52:01.648Z,21.44
2019-06-01T23:54:18.313Z,21.50
2019-06-01T23:56:35.570Z,21.33
2019-06-01T23:58:52.414Z,20.14
